Big Piney River (Missouri), Fort Leonard Wood (06930060)

StateMissouriLatestLow (399 cfs)
RiverBig Piney RiverRatingObservedEstimated
Updated2021-01-19 23:00 (1 hour ago)Flood - The river is flooding. Obstacles can be treacherous or deadly. The river should be avoided at this stage for casual trips and definitely for the inexperienced. Trips should be attempted only with protective gear and equipment.Flood(none)3337
Discharge399 cfs (median: 274 cfs)High - The river is high and potentially dangerous, especially for the young and / or inexperienced. Normal stream obstacles are sometimes difficult to navigate. Extended distances can be attempted, but canoe travel may not be advisable.High(none)1572
Height2.5 feetGood - Conditions are ideal for a canoe or kayak. Boats typically will drag on fewer than one-quarter of riffles, if at all, and portages are unnecessary or rare. Normal float lengths can be attempted without a problem.Good(none)673
TrendSteady (falling over 24 hours)Low - River is low but can still be floated. Some riffles are okay but most come with significant dragging and might need a portage. Float lengths should be reduced to accommodate low flow, dragging, and portages.Low(none)395
USGSExternal icon USGS Site (External icon Google Maps)Poor - River is too low to float comfortably. Most or all riffles will drag or must be portaged and some obstacles (such as slick shelf rock) cause undue problems. Avoid the river at this stage for casual paddling trips.Poor(none)208

Trending Data

Plot Image

Trips for Big Piney River (Missouri), Fort Leonard Wood (06930060)

DateStartEndDistanceConditionDischargeHeightFishingDetails

A total of 0 rows are displayed.

Condition Descriptions

Fishing Conditions

Fish Species

Notes

Classic Trip List

The classic River Trips application is still available for use. It is updated with the new system using a data retrofit. It is no longer maintained. The original River Trips application is no longer updated (as of 1 Dec 2016) but can be checked for errors or for the condition of the data before it was converted to the new system.

Gauge Data Table

ObservationHeightDischargeMaximum
Discharge
Minimum
Discharge
Mean
Discharge
P05P10P20P25P50
(Median)
P75P80P90P95
2021-01-19 23:00 2.50 399 4370 (2020) 180 (2000) 656 180 184 203 210 294 776 1000 1230 4060
2021-01-19 22:00 2.50 399 4370 (2020) 180 (2000) 656 180 184 203 210 294 776 1000 1230 4060
2021-01-19 21:00 2.48 391 4370 (2020) 180 (2000) 656 180 184 203 210 294 776 1000 1230 4060
2021-01-19 20:00 2.50 399 4370 (2020) 180 (2000) 656 180 184 203 210 294 776 1000 1230 4060
2021-01-19 19:00 2.50 399 4370 (2020) 180 (2000) 656 180 184 203 210 294 776 1000 1230 4060
2021-01-19 18:00 2.51 402 4370 (2020) 180 (2000) 656 180 184 203 210 294 776 1000 1230 4060
2021-01-19 17:00 2.53 409 4370 (2020) 180 (2000) 656 180 184 203 210 294 776 1000 1230 4060
2021-01-19 16:00 2.52 406 4370 (2020) 180 (2000) 656 180 184 203 210 294 776 1000 1230 4060
2021-01-19 15:00 2.51 402 4370 (2020) 180 (2000) 656 180 184 203 210 294 776 1000 1230 4060
2021-01-19 14:00 2.52 406 4370 (2020) 180 (2000) 656 180 184 203 210 294 776 1000 1230 4060
2021-01-19 13:00 2.51 402 4370 (2020) 180 (2000) 656 180 184 203 210 294 776 1000 1230 4060
2021-01-19 12:00 2.51 402 4370 (2020) 180 (2000) 656 180 184 203 210 294 776 1000 1230 4060
2021-01-19 11:00 2.53 409 4370 (2020) 180 (2000) 656 180 184 203 210 294 776 1000 1230 4060
2021-01-19 10:00 2.53 409 4370 (2020) 180 (2000) 656 180 184 203 210 294 776 1000 1230 4060
2021-01-19 09:00 2.53 409 4370 (2020) 180 (2000) 656 180 184 203 210 294 776 1000 1230 4060
2021-01-19 08:00 2.52 406 4370 (2020) 180 (2000) 656 180 184 203 210 294 776 1000 1230 4060
2021-01-19 07:00 2.54 413 4370 (2020) 180 (2000) 656 180 184 203 210 294 776 1000 1230 4060
2021-01-19 06:00 2.53 409 4370 (2020) 180 (2000) 656 180 184 203 210 294 776 1000 1230 4060
2021-01-19 05:00 2.54 413 4370 (2020) 180 (2000) 656 180 184 203 210 294 776 1000 1230 4060
2021-01-19 04:00 2.55 416 4370 (2020) 180 (2000) 656 180 184 203 210 294 776 1000 1230 4060
2021-01-19 03:00 2.54 413 4370 (2020) 180 (2000) 656 180 184 203 210 294 776 1000 1230 4060
2021-01-19 02:00 2.55 416 4370 (2020) 180 (2000) 656 180 184 203 210 294 776 1000 1230 4060
2021-01-19 01:00 2.52 406 4370 (2020) 180 (2000) 656 180 184 203 210 294 776 1000 1230 4060
2021-01-19 00:00 2.51 402 4370 (2020) 180 (2000) 656 180 184 203 210 294 776 1000 1230 4060
2021-01-18 23:00 2.53 409 2830 (2020) 182 (2000) 597 182 184 201 217 318 750 848 1370 2680
2021-01-18 22:00 2.55 416 2830 (2020) 182 (2000) 597 182 184 201 217 318 750 848 1370 2680
2021-01-18 21:00 2.54 413 2830 (2020) 182 (2000) 597 182 184 201 217 318 750 848 1370 2680
2021-01-18 20:00 2.54 413 2830 (2020) 182 (2000) 597 182 184 201 217 318 750 848 1370 2680
2021-01-18 19:00 2.55 416 2830 (2020) 182 (2000) 597 182 184 201 217 318 750 848 1370 2680
2021-01-18 18:00 2.56 420 2830 (2020) 182 (2000) 597 182 184 201 217 318 750 848 1370 2680
2021-01-18 17:00 2.52 406 2830 (2020) 182 (2000) 597 182 184 201 217 318 750 848 1370 2680
2021-01-18 16:00 2.54 413 2830 (2020) 182 (2000) 597 182 184 201 217 318 750 848 1370 2680
2021-01-18 15:00 2.57 424 2830 (2020) 182 (2000) 597 182 184 201 217 318 750 848 1370 2680
2021-01-18 14:00 2.57 424 2830 (2020) 182 (2000) 597 182 184 201 217 318 750 848 1370 2680
2021-01-18 13:00 2.56 420 2830 (2020) 182 (2000) 597 182 184 201 217 318 750 848 1370 2680
2021-01-18 12:00 2.57 424 2830 (2020) 182 (2000) 597 182 184 201 217 318 750 848 1370 2680
2021-01-18 11:00 2.57 424 2830 (2020) 182 (2000) 597 182 184 201 217 318 750 848 1370 2680
2021-01-18 10:00 2.56 420 2830 (2020) 182 (2000) 597 182 184 201 217 318 750 848 1370 2680
2021-01-18 09:00 2.57 424 2830 (2020) 182 (2000) 597 182 184 201 217 318 750 848 1370 2680
2021-01-18 08:00 2.58 427 2830 (2020) 182 (2000) 597 182 184 201 217 318 750 848 1370 2680
2021-01-18 07:00 2.57 424 2830 (2020) 182 (2000) 597 182 184 201 217 318 750 848 1370 2680
2021-01-18 06:00 2.56 420 2830 (2020) 182 (2000) 597 182 184 201 217 318 750 848 1370 2680
2021-01-18 05:00 2.57 424 2830 (2020) 182 (2000) 597 182 184 201 217 318 750 848 1370 2680
2021-01-18 04:00 2.56 420 2830 (2020) 182 (2000) 597 182 184 201 217 318 750 848 1370 2680
2021-01-18 03:00 2.58 427 2830 (2020) 182 (2000) 597 182 184 201 217 318 750 848 1370 2680
2021-01-18 02:00 2.59 431 2830 (2020) 182 (2000) 597 182 184 201 217 318 750 848 1370 2680
2021-01-18 01:00 2.61 438 2830 (2020) 182 (2000) 597 182 184 201 217 318 750 848 1370 2680
2021-01-18 00:00 2.61 438 2830 (2020) 182 (2000) 597 182 184 201 217 318 750 848 1370 2680
2021-01-17 23:00 2.59 431 1940 (2007) 181 (2018) 578 181 186 201 223 352 794 937 1590 1910
2021-01-17 22:00 2.58 427 1940 (2007) 181 (2018) 578 181 186 201 223 352 794 937 1590 1910
2021-01-17 21:00 2.61 438 1940 (2007) 181 (2018) 578 181 186 201 223 352 794 937 1590 1910
2021-01-17 20:00 2.57 424 1940 (2007) 181 (2018) 578 181 186 201 223 352 794 937 1590 1910
2021-01-17 19:00 2.59 431 1940 (2007) 181 (2018) 578 181 186 201 223 352 794 937 1590 1910
2021-01-17 18:00 2.59 431 1940 (2007) 181 (2018) 578 181 186 201 223 352 794 937 1590 1910
2021-01-17 17:00 2.61 438 1940 (2007) 181 (2018) 578 181 186 201 223 352 794 937 1590 1910
2021-01-17 16:00 2.59 431 1940 (2007) 181 (2018) 578 181 186 201 223 352 794 937 1590 1910
2021-01-17 15:00 2.61 438 1940 (2007) 181 (2018) 578 181 186 201 223 352 794 937 1590 1910
2021-01-17 14:00 2.58 427 1940 (2007) 181 (2018) 578 181 186 201 223 352 794 937 1590 1910
2021-01-17 13:00 2.60 434 1940 (2007) 181 (2018) 578 181 186 201 223 352 794 937 1590 1910
2021-01-17 12:00 2.61 438 1940 (2007) 181 (2018) 578 181 186 201 223 352 794 937 1590 1910
2021-01-17 11:00 2.61 438 1940 (2007) 181 (2018) 578 181 186 201 223 352 794 937 1590 1910
2021-01-17 10:00 2.64 449 1940 (2007) 181 (2018) 578 181 186 201 223 352 794 937 1590 1910
2021-01-17 09:00 2.60 434 1940 (2007) 181 (2018) 578 181 186 201 223 352 794 937 1590 1910
2021-01-17 08:00 2.63 446 1940 (2007) 181 (2018) 578 181 186 201 223 352 794 937 1590 1910
2021-01-17 07:00 2.62 442 1940 (2007) 181 (2018) 578 181 186 201 223 352 794 937 1590 1910
2021-01-17 06:00 2.61 438 1940 (2007) 181 (2018) 578 181 186 201 223 352 794 937 1590 1910
2021-01-17 05:00 2.60 434 1940 (2007) 181 (2018) 578 181 186 201 223 352 794 937 1590 1910
2021-01-17 04:00 2.63 446 1940 (2007) 181 (2018) 578 181 186 201 223 352 794 937 1590 1910
2021-01-17 03:00 2.63 446 1940 (2007) 181 (2018) 578 181 186 201 223 352 794 937 1590 1910
2021-01-17 02:00 2.62 442 1940 (2007) 181 (2018) 578 181 186 201 223 352 794 937 1590 1910
2021-01-17 01:00 2.62 442 1940 (2007) 181 (2018) 578 181 186 201 223 352 794 937 1590 1910

A total of 71 rows are displayed for years 2000 through 2020.